Time;durP1;ratioP1;P1;durP2;ratioP2;P2;SDS_P1;SDS_P2;PMS_P1;PMS_P2;Temp;Humidity;BMP_temperature;BMP_pressure;BME280_temperature;BME280_humidity;BME280_pressure;Samples;Min_cycle;Max_cycle;Signal;HPM_P1;HPM_P2
2022/12/23 00:01:02;;;;;;;7.50;4.83;;;8.30;99.90;;;;;;5095669;28;20202;-81
2022/12/23 00:03:30;;;;;;;8.03;4.67;;;8.30;99.90;;;;;;5098624;28;20209;-82
2022/12/23 00:05:57;;;;;;;6.23;4.47;;;8.30;99.90;;;;;;5095491;28;20200;-82
2022/12/23 00:08:25;;;;;;;9.20;4.63;;;8.30;99.90;;;;;;5098807;28;20235;-81
2022/12/23 00:10:56;;;;;;;9.53;5.17;;;8.20;99.90;;;;;;5097022;28;20255;-82
2022/12/23 00:16:09;;;;;;;7.13;4.90;;;8.30;99.90;;;;;;5094300;28;20204;-81
2022/12/23 00:18:36;;;;;;;7.43;4.53;;;8.20;99.90;;;;;;5096667;28;20249;-81
2022/12/23 00:21:04;;;;;;;6.70;4.23;;;8.30;99.90;;;;;;5100831;28;20212;-81
2022/12/23 00:23:32;;;;;;;5.20;3.53;;;8.20;99.90;;;;;;5095606;28;20202;-81
2022/12/23 00:26:01;;;;;;;4.90;3.23;;;8.20;99.90;;;;;;5104692;28;20261;-81
2022/12/23 00:28:29;;;;;;;5.43;3.20;;;8.30;99.90;;;;;;5097399;28;20222;-81
2022/12/23 00:31:00;;;;;;;4.47;3.73;;;8.40;99.90;;;;;;5099479;28;20676;-82
2022/12/23 00:33:28;;;;;;;4.83;3.27;;;8.30;99.90;;;;;;5101674;28;20312;-82
2022/12/23 00:35:56;;;;;;;4.73;3.50;;;8.30;99.90;;;;;;5102333;28;20205;-81
2022/12/23 00:43:50;;;;;;;4.80;3.17;;;8.30;99.90;;;;;;5099753;28;20220;-82
2022/12/23 00:46:16;;;;;;;5.30;3.43;;;8.20;99.90;;;;;;5103571;28;20212;-81
2022/12/23 00:51:28;;;;;;;5.27;3.40;;;8.10;99.90;;;;;;5095769;28;20262;-82
2022/12/23 00:53:54;;;;;;;7.17;3.63;;;8.20;99.90;;;;;;5101676;28;20201;-82
2022/12/23 00:56:22;;;;;;;3.37;3.00;;;8.20;99.90;;;;;;5101670;28;20194;-82
2022/12/23 00:58:49;;;;;;;4.67;2.70;;;8.30;99.90;;;;;;5103972;28;20312;-82
2022/12/23 01:06:45;;;;;;;5.67;3.43;;;8.40;99.90;;;;;;5091053;28;20209;-82
2022/12/23 01:09:12;;;;;;;3.60;2.53;;;8.50;99.90;;;;;;5102836;28;20320;-81
2022/12/23 01:11:40;;;;;;;3.40;2.80;;;8.60;99.90;;;;;;5103377;28;20269;-81
2022/12/23 01:14:09;;;;;;;3.70;2.90;;;8.60;99.90;;;;;;5101630;28;20548;-81
2022/12/23 01:16:37;;;;;;;3.23;2.80;;;8.60;99.90;;;;;;5100640;28;20201;-81
2022/12/23 01:19:04;;;;;;;4.40;3.20;;;8.60;99.90;;;;;;5098714;28;20226;-81
2022/12/23 01:21:30;;;;;;;3.83;2.93;;;8.60;99.90;;;;;;5103927;28;20202;-81
2022/12/23 01:23:57;;;;;;;4.17;3.00;;;8.60;99.90;;;;;;5102598;28;20197;-82
2022/12/23 01:26:24;;;;;;;8.40;3.63;;;8.60;99.90;;;;;;5102439;28;20208;-82
2022/12/23 01:28:55;;;;;;;4.57;3.10;;;8.60;99.90;;;;;;5097063;28;20625;-82
2022/12/23 01:31:22;;;;;;;5.47;3.90;;;8.50;99.90;;;;;;5093823;28;20216;-82
2022/12/23 01:33:49;;;;;;;4.97;3.37;;;8.60;99.90;;;;;;5094866;28;20207;-82
2022/12/23 01:36:16;;;;;;;5.00;3.83;;;8.60;99.90;;;;;;5096635;28;20208;-82
2022/12/23 01:38:43;;;;;;;5.53;4.03;;;8.80;99.90;;;;;;5095400;28;20225;-82
2022/12/23 01:42:42;;;;;;;7.17;4.07;;;8.70;99.90;;;;;;5099184;28;20206;-81
2022/12/23 01:44:01;;;;;;;5.53;3.83;;;8.70;99.90;;;;;;5098586;28;20217;-82
2022/12/23 01:46:28;;;;;;;5.73;4.50;;;8.70;99.90;;;;;;5093853;28;20268;-81
2022/12/23 01:48:57;;;;;;;7.27;4.60;;;8.70;99.90;;;;;;5097890;28;20229;-82
2022/12/23 01:51:27;;;;;;;9.70;6.30;;;8.70;99.90;;;;;;5101707;28;20205;-81
2022/12/23 01:53:57;;;;;;;9.47;5.60;;;8.80;99.90;;;;;;5096586;28;20208;-82
2022/12/23 01:56:28;;;;;;;10.17;5.67;;;8.80;99.90;;;;;;5100959;28;20210;-82
2022/12/23 01:58:58;;;;;;;12.03;6.10;;;8.90;99.90;;;;;;5098981;28;20229;-82
2022/12/23 02:04:18;;;;;;;8.23;5.83;;;8.90;99.90;;;;;;5101212;28;20316;-82
2022/12/23 02:09:37;;;;;;;8.17;4.80;;;9.00;99.90;;;;;;5082153;28;20225;-82
2022/12/23 02:12:25;;;;;;;8.13;4.60;;;9.00;99.90;;;;;;5082334;28;20571;-82
2022/12/23 02:18:24;;;;;;;10.60;5.90;;;9.20;99.90;;;;;;5092334;28;20680;-82
2022/12/23 02:21:10;;;;;;;10.10;5.50;;;9.00;99.90;;;;;;5093897;28;20208;-82
2022/12/23 02:24:12;;;;;;;8.93;5.93;;;9.00;99.90;;;;;;5087169;28;20200;-81
2022/12/23 02:26:59;;;;;;;8.87;6.17;;;9.00;99.90;;;;;;5086988;28;20211;-81
2022/12/23 02:29:52;;;;;;;7.00;5.17;;;9.10;99.90;;;;;;5094850;28;20221;-81
2022/12/23 02:32:29;;;;;;;9.73;5.63;;;9.10;99.90;;;;;;5062595;28;20245;-81
2022/12/23 02:35:03;;;;;;;7.13;5.13;;;9.10;99.90;;;;;;5095216;28;20284;-81
2022/12/23 02:37:35;;;;;;;6.67;4.77;;;9.00;99.90;;;;;;5092378;28;20217;-81
2022/12/23 02:40:09;;;;;;;15.37;5.13;;;9.10;99.90;;;;;;5098657;28;20569;-81
2022/12/23 02:42:42;;;;;;;7.23;5.23;;;9.00;99.90;;;;;;5095277;28;20239;-82
2022/12/23 02:45:13;;;;;;;7.00;5.37;;;9.00;99.90;;;;;;5093984;28;20204;-82
2022/12/23 02:47:46;;;;;;;7.23;5.50;;;9.00;99.90;;;;;;5095147;28;20232;-81
2022/12/23 02:50:17;;;;;;;9.47;5.87;;;9.00;99.90;;;;;;5097980;28;20213;-82
2022/12/23 02:52:46;;;;;;;10.10;6.17;;;9.00;99.90;;;;;;5095859;28;20645;-81
2022/12/23 02:55:18;;;;;;;11.13;6.63;;;9.10;99.90;;;;;;5097865;28;20212;-82
2022/12/23 02:57:49;;;;;;;9.90;6.83;;;9.10;99.90;;;;;;5093637;28;20225;-82
2022/12/23 03:00:17;;;;;;;11.03;6.40;;;9.10;99.90;;;;;;5098301;28;20296;-82
2022/12/23 03:02:45;;;;;;;9.53;6.33;;;9.10;99.90;;;;;;5092651;28;20248;-82
2022/12/23 03:05:26;;;;;;;8.70;6.17;;;9.00;99.90;;;;;;5096971;28;20221;-81
2022/12/23 03:07:58;;;;;;;9.63;6.53;;;9.00;99.90;;;;;;5095473;28;20233;-82
2022/12/23 03:10:34;;;;;;;8.83;6.10;;;9.10;99.90;;;;;;5099682;28;20213;-81
2022/12/23 03:13:14;;;;;;;9.20;6.07;;;9.00;99.90;;;;;;5090914;28;20205;-82
2022/12/23 03:15:50;;;;;;;11.73;7.27;;;9.00;99.90;;;;;;5091981;28;20273;-82
2022/12/23 03:18:29;;;;;;;9.27;6.70;;;9.00;99.90;;;;;;5090061;28;20224;-82
2022/12/23 03:21:05;;;;;;;12.83;7.60;;;9.00;99.90;;;;;;5096034;28;20265;-82
2022/12/23 03:23:36;;;;;;;11.13;6.73;;;9.10;99.90;;;;;;5090731;28;20212;-83
2022/12/23 03:26:10;;;;;;;10.07;6.90;;;9.10;99.90;;;;;;5096812;28;20292;-83
2022/12/23 03:28:47;;;;;;;9.53;6.80;;;9.10;99.90;;;;;;5092627;28;20661;-83
2022/12/23 03:31:18;;;;;;;13.10;7.23;;;9.20;99.90;;;;;;5095201;28;20588;-83
2022/12/23 03:33:49;;;;;;;10.43;7.33;;;9.20;99.90;;;;;;5095289;28;20261;-82
2022/12/23 03:36:20;;;;;;;10.53;7.30;;;9.10;99.90;;;;;;5100153;28;20549;-83
2022/12/23 03:38:49;;;;;;;12.47;7.70;;;9.10;99.90;;;;;;5098234;28;20225;-83
2022/12/23 03:41:23;;;;;;;11.77;7.30;;;9.20;99.90;;;;;;5099200;28;20241;-83
2022/12/23 03:43:54;;;;;;;11.53;7.90;;;9.10;99.90;;;;;;5093035;28;20593;-83
2022/12/23 03:46:29;;;;;;;13.57;8.43;;;9.20;99.90;;;;;;5095820;28;20240;-83
2022/12/23 03:48:59;;;;;;;13.93;8.37;;;9.10;99.90;;;;;;5098814;28;20606;-83
2022/12/23 03:51:32;;;;;;;14.47;8.37;;;9.20;99.90;;;;;;5094581;28;20201;-83
2022/12/23 03:54:01;;;;;;;12.50;8.17;;;9.20;99.90;;;;;;5092460;28;20205;-83
2022/12/23 03:56:31;;;;;;;13.43;8.10;;;9.30;99.90;;;;;;5097175;28;20208;-82
2022/12/23 03:59:00;;;;;;;15.07;8.17;;;9.30;99.90;;;;;;5092319;28;20301;-83
2022/12/23 04:01:37;;;;;;;13.13;8.40;;;9.30;99.90;;;;;;5083520;28;20194;-83
2022/12/23 04:04:11;;;;;;;14.33;9.27;;;9.30;99.90;;;;;;5089324;28;20204;-83
2022/12/23 04:06:43;;;;;;;17.67;9.90;;;9.30;99.90;;;;;;5102904;28;20288;-83
2022/12/23 04:09:11;;;;;;;18.70;10.67;;;9.40;99.90;;;;;;5102635;28;20214;-82
2022/12/23 04:11:38;;;;;;;15.87;9.77;;;9.40;99.90;;;;;;5098457;28;20214;-82
2022/12/23 04:14:07;;;;;;;16.83;9.83;;;9.40;99.90;;;;;;5093762;28;20217;-82
2022/12/23 04:16:34;;;;;;;17.33;9.77;;;9.30;99.90;;;;;;5099768;28;20288;-82
2022/12/23 04:19:01;;;;;;;13.80;8.47;;;9.60;99.90;;;;;;5095810;28;20222;-82
2022/12/23 04:21:29;;;;;;;15.60;9.33;;;9.40;99.90;;;;;;5091263;28;20576;-82
2022/12/23 04:23:56;;;;;;;13.17;8.47;;;9.40;99.90;;;;;;5102820;28;20680;-82
2022/12/23 04:26:22;;;;;;;14.43;8.23;;;9.40;99.90;;;;;;5095971;28;20212;-81
2022/12/23 04:28:49;;;;;;;11.37;7.33;;;9.40;99.90;;;;;;5099536;28;20224;-82
2022/12/23 04:31:16;;;;;;;12.57;7.93;;;9.40;99.90;;;;;;5102180;28;20201;-83
2022/12/23 04:33:43;;;;;;;11.17;6.90;;;9.50;99.90;;;;;;5093480;28;20197;-82
2022/12/23 04:36:09;;;;;;;10.80;7.70;;;9.50;99.90;;;;;;5099082;28;20201;-83
2022/12/23 04:38:37;;;;;;;12.17;7.63;;;9.50;99.90;;;;;;5102113;28;20232;-82
2022/12/23 04:41:04;;;;;;;13.10;7.67;;;9.50;99.90;;;;;;5100658;28;20212;-82
2022/12/23 04:43:31;;;;;;;10.10;6.73;;;9.50;99.90;;;;;;5095342;28;20681;-82
2022/12/23 04:45:58;;;;;;;10.90;7.00;;;9.40;99.90;;;;;;5095709;28;20232;-82
2022/12/23 04:48:25;;;;;;;11.47;6.83;;;9.40;99.90;;;;;;5097947;28;20316;-82
2022/12/23 04:50:52;;;;;;;11.43;7.37;;;9.40;99.90;;;;;;5093758;28;20201;-82
2022/12/23 04:53:18;;;;;;;9.27;6.30;;;9.40;99.90;;;;;;5096056;28;20209;-82
2022/12/23 04:55:51;;;;;;;8.40;5.20;;;9.30;99.90;;;;;;5098725;28;20205;-81
2022/12/23 04:58:20;;;;;;;7.13;5.03;;;9.40;99.90;;;;;;5111349;28;20292;-82
2022/12/23 05:00:47;;;;;;;6.63;4.47;;;9.30;99.90;;;;;;5108348;28;20205;-82
2022/12/23 05:03:14;;;;;;;6.47;4.40;;;9.30;99.90;;;;;;5104703;28;20201;-82
2022/12/23 05:05:43;;;;;;;4.47;3.67;;;9.30;99.90;;;;;;5098365;28;20236;-83
2022/12/23 05:08:10;;;;;;;4.93;3.50;;;9.30;99.90;;;;;;5099833;28;20228;-82
2022/12/23 05:10:37;;;;;;;3.63;3.00;;;9.30;99.90;;;;;;5087563;28;20555;-82
2022/12/23 05:13:05;;;;;;;3.63;3.10;;;9.40;99.90;;;;;;5097610;28;20205;-82
2022/12/23 05:15:32;;;;;;;3.93;2.87;;;9.30;99.90;;;;;;5093737;28;20202;-83
2022/12/23 05:17:59;;;;;;;4.37;3.00;;;9.30;99.90;;;;;;5094634;28;20759;-82
2022/12/23 05:20:26;;;;;;;3.50;2.73;;;9.20;99.90;;;;;;5088557;28;20212;-82
2022/12/23 05:22:53;;;;;;;3.67;2.87;;;9.30;99.90;;;;;;5098192;28;20204;-82
2022/12/23 05:25:20;;;;;;;2.73;2.40;;;9.30;99.90;;;;;;5099362;28;20285;-83
2022/12/23 05:27:46;;;;;;;2.60;2.40;;;9.30;99.90;;;;;;5098063;28;20693;-83
2022/12/23 05:30:15;;;;;;;4.23;3.00;;;9.20;99.90;;;;;;5100192;28;20244;-82
2022/12/23 05:32:41;;;;;;;3.50;2.77;;;9.20;99.90;;;;;;5107476;28;20254;-82
2022/12/23 05:35:09;;;;;;;4.13;3.17;;;9.20;99.90;;;;;;5116654;28;20201;-82
2022/12/23 05:37:36;;;;;;;5.73;3.27;;;9.20;99.90;;;;;;5118196;28;20681;-83
2022/12/23 05:40:03;;;;;;;4.20;3.13;;;9.20;99.90;;;;;;5098712;28;20202;-82
2022/12/23 05:42:30;;;;;;;4.13;3.27;;;9.20;99.90;;;;;;5094010;28;20209;-83
2022/12/23 05:44:57;;;;;;;5.23;4.00;;;9.10;99.90;;;;;;5096589;28;20215;-83
2022/12/23 05:47:25;;;;;;;5.27;3.93;;;9.20;99.90;;;;;;5094358;28;20236;-83
2022/12/23 05:49:52;;;;;;;6.37;4.43;;;9.00;99.90;;;;;;5098721;28;20583;-83
2022/12/23 05:52:18;;;;;;;7.33;4.00;;;9.10;99.90;;;;;;5100425;28;20206;-83
2022/12/23 05:54:45;;;;;;;5.10;3.80;;;9.10;99.90;;;;;;5097271;28;20202;-83
2022/12/23 05:57:12;;;;;;;7.87;4.90;;;9.10;99.90;;;;;;5096115;28;20253;-82
2022/12/23 05:59:39;;;;;;;6.40;4.20;;;9.10;99.90;;;;;;5092035;28;20272;-82
2022/12/23 06:02:06;;;;;;;7.63;5.00;;;9.10;99.90;;;;;;5089505;28;20209;-83
2022/12/23 06:04:34;;;;;;;8.50;5.73;;;9.00;99.90;;;;;;5100225;28;20281;-82
2022/12/23 06:07:01;;;;;;;8.93;6.00;;;9.00;99.90;;;;;;5088966;28;20288;-82
2022/12/23 06:09:28;;;;;;;8.03;5.80;;;9.00;99.90;;;;;;5089964;28;20218;-83
2022/12/23 06:11:55;;;;;;;7.23;5.30;;;9.00;99.90;;;;;;5092028;28;20202;-82
2022/12/23 06:14:21;;;;;;;8.67;5.67;;;9.00;99.90;;;;;;5093761;28;20206;-83
2022/12/23 06:16:50;;;;;;;8.97;5.20;;;8.90;99.90;;;;;;5098899;28;20197;-83
2022/12/23 06:19:17;;;;;;;10.13;6.03;;;8.90;99.90;;;;;;5099290;28;20201;-83
2022/12/23 06:21:45;;;;;;;9.03;5.80;;;8.90;99.90;;;;;;5107939;28;20198;-82
2022/12/23 06:24:12;;;;;;;10.57;6.60;;;8.90;99.90;;;;;;5088617;28;20198;-82
2022/12/23 06:26:39;;;;;;;9.37;6.10;;;8.80;99.90;;;;;;5091785;28;20662;-82
2022/12/23 06:29:06;;;;;;;10.80;6.60;;;8.80;99.90;;;;;;5092235;28;20240;-83
2022/12/23 06:31:32;;;;;;;11.23;7.00;;;8.80;99.90;;;;;;5091254;28;20211;-82
2022/12/23 06:33:59;;;;;;;10.97;6.63;;;8.90;99.90;;;;;;5101665;28;20269;-83
2022/12/23 06:36:26;;;;;;;11.80;7.30;;;8.80;99.90;;;;;;5086396;28;20408;-82
2022/12/23 06:38:54;;;;;;;10.90;6.83;;;8.70;99.90;;;;;;5094709;28;20216;-83
2022/12/23 06:41:21;;;;;;;11.87;7.20;;;8.70;99.90;;;;;;5095403;28;20198;-83
2022/12/23 06:43:48;;;;;;;12.53;7.80;;;8.70;99.90;;;;;;5092287;28;20212;-83
2022/12/23 06:46:14;;;;;;;13.47;7.80;;;8.70;99.90;;;;;;5096970;28;20202;-83
2022/12/23 06:48:41;;;;;;;14.03;8.40;;;8.70;99.90;;;;;;5089605;28;20221;-82
2022/12/23 06:51:09;;;;;;;13.07;7.53;;;8.70;99.90;;;;;;5097719;28;20216;-83
2022/12/23 06:53:36;;;;;;;12.73;7.63;;;8.60;99.90;;;;;;5091509;28;20317;-82
2022/12/23 06:56:06;;;;;;;15.20;8.60;;;8.60;99.90;;;;;;5099859;28;20201;-83
2022/12/23 06:58:32;;;;;;;13.60;8.17;;;8.60;99.90;;;;;;5092762;28;20225;-83
2022/12/23 07:00:59;;;;;;;14.37;8.73;;;8.60;99.90;;;;;;5088187;28;20273;-85
2022/12/23 07:03:26;;;;;;;14.60;8.60;;;8.50;99.90;;;;;;5097914;28;20496;-82
2022/12/23 07:05:53;;;;;;;12.93;7.90;;;8.50;99.90;;;;;;5093556;28;20687;-83
2022/12/23 07:08:20;;;;;;;14.93;8.87;;;8.50;99.90;;;;;;5090878;28;20218;-82
2022/12/23 07:10:47;;;;;;;18.47;11.60;;;8.50;99.90;;;;;;5092627;28;20221;-83
2022/12/23 07:13:15;;;;;;;19.77;11.77;;;8.50;99.90;;;;;;5098478;28;20284;-83
2022/12/23 07:15:42;;;;;;;18.77;11.43;;;8.50;99.90;;;;;;5099584;28;20208;-83
2022/12/23 07:18:08;;;;;;;19.03;11.23;;;8.40;99.90;;;;;;5091798;28;20613;-83
2022/12/23 07:20:35;;;;;;;17.73;10.40;;;8.40;99.90;;;;;;5102415;28;20229;-83
2022/12/23 07:23:02;;;;;;;22.40;12.23;;;8.50;99.90;;;;;;5096001;28;20193;-83
2022/12/23 07:25:29;;;;;;;19.77;10.90;;;8.40;99.90;;;;;;5099573;28;20576;-83
2022/12/23 07:27:56;;;;;;;20.87;11.90;;;8.40;99.90;;;;;;5098750;28;20222;-83
2022/12/23 07:30:24;;;;;;;21.57;11.70;;;8.40;99.90;;;;;;5099783;28;20225;-83
2022/12/23 07:32:52;;;;;;;23.47;13.37;;;8.30;99.90;;;;;;5093765;28;20205;-83
2022/12/23 07:35:19;;;;;;;20.80;11.73;;;8.30;99.90;;;;;;5095178;28;20238;-83
2022/12/23 07:37:46;;;;;;;18.43;11.20;;;8.30;99.90;;;;;;5096911;28;20247;-82
2022/12/23 07:40:13;;;;;;;16.30;9.20;;;8.30;99.90;;;;;;5096971;28;20292;-83
2022/12/23 07:42:40;;;;;;;15.10;8.17;;;8.30;99.90;;;;;;5097068;28;20197;-82
2022/12/23 07:45:08;;;;;;;16.67;9.37;;;8.30;99.90;;;;;;5096816;28;20209;-82
2022/12/23 07:47:36;;;;;;;17.87;9.33;;;8.30;99.90;;;;;;5094414;28;20237;-83
2022/12/23 07:50:03;;;;;;;16.70;9.97;;;8.30;99.90;;;;;;5099365;28;20608;-83
2022/12/23 07:52:29;;;;;;;16.33;9.00;;;8.20;99.90;;;;;;5093874;28;20205;-82
2022/12/23 07:54:56;;;;;;;16.53;9.27;;;8.20;99.90;;;;;;5101014;28;20194;-82
2022/12/23 07:57:23;;;;;;;16.20;9.27;;;8.20;99.90;;;;;;5098154;28;20229;-82
2022/12/23 07:59:50;;;;;;;15.70;8.60;;;8.10;99.90;;;;;;5098723;28;20205;-83
2022/12/23 08:02:17;;;;;;;17.10;8.70;;;8.20;99.90;;;;;;5093629;28;20594;-83
2022/12/23 08:04:45;;;;;;;15.40;8.03;;;8.10;99.90;;;;;;5094844;28;20289;-82
2022/12/23 08:07:12;;;;;;;15.80;9.20;;;8.10;99.90;;;;;;5097246;28;20244;-83
2022/12/23 08:09:39;;;;;;;14.90;8.60;;;8.20;99.90;;;;;;5098660;28;20221;-83
2022/12/23 08:12:06;;;;;;;14.47;8.67;;;8.20;99.90;;;;;;5091333;28;20198;-82
2022/12/23 08:14:33;;;;;;;15.27;9.07;;;8.20;99.90;;;;;;5099873;28;20684;-82
2022/12/23 08:17:00;;;;;;;15.63;9.00;;;8.20;99.90;;;;;;5090833;28;20668;-83
2022/12/23 08:19:26;;;;;;;14.07;8.37;;;8.20;99.90;;;;;;5094811;28;20228;-82
2022/12/23 08:21:54;;;;;;;15.70;9.33;;;8.20;99.90;;;;;;5096093;28;20209;-82
2022/12/23 08:24:21;;;;;;;18.20;9.93;;;8.20;99.90;;;;;;5097042;28;20201;-82
2022/12/23 08:26:48;;;;;;;16.97;9.67;;;8.20;99.90;;;;;;5094239;28;20213;-83
2022/12/23 08:29:15;;;;;;;14.97;8.40;;;8.30;99.90;;;;;;5097669;28;20194;-83
2022/12/23 08:31:41;;;;;;;16.60;9.70;;;8.40;99.90;;;;;;5089387;28;20297;-83
2022/12/23 08:34:09;;;;;;;24.03;11.80;;;8.30;99.90;;;;;;5092268;28;20651;-83
2022/12/23 08:36:38;;;;;;;17.77;10.37;;;8.20;99.90;;;;;;5099330;28;20461;-83
2022/12/23 08:39:09;;;;;;;19.33;9.20;;;8.30;99.90;;;;;;5095342;28;20222;-83
2022/12/23 08:41:38;;;;;;;20.57;10.40;;;8.30;99.90;;;;;;5088162;28;20233;-83
2022/12/23 08:44:06;;;;;;;20.00;10.23;;;8.30;99.90;;;;;;5103247;28;20201;-83
2022/12/23 08:46:33;;;;;;;18.57;9.10;;;8.50;99.90;;;;;;5102501;28;20227;-81
2022/12/23 08:48:59;;;;;;;18.20;9.90;;;8.40;99.90;;;;;;5093231;28;20343;-83
2022/12/23 08:51:27;;;;;;;17.43;8.97;;;8.40;99.90;;;;;;5104284;28;20317;-83
2022/12/23 08:53:56;;;;;;;17.87;10.07;;;8.40;99.90;;;;;;5103984;28;20654;-83
2022/12/23 08:56:26;;;;;;;16.43;8.23;;;8.40;99.90;;;;;;5104712;28;20212;-83
2022/12/23 08:58:54;;;;;;;15.53;8.83;;;8.40;99.90;;;;;;5097940;28;20225;-83
2022/12/23 09:01:22;;;;;;;14.47;7.80;;;8.40;99.90;;;;;;5109598;28;20204;-83
2022/12/23 09:03:50;;;;;;;15.37;8.03;;;8.40;99.90;;;;;;5105764;28;20269;-83
2022/12/23 09:06:19;;;;;;;15.03;7.80;;;8.40;99.90;;;;;;5104837;28;20228;-83
2022/12/23 09:08:46;;;;;;;14.73;7.23;;;8.40;99.90;;;;;;5104932;28;20301;-83
2022/12/23 09:11:15;;;;;;;14.00;7.97;;;8.40;99.90;;;;;;5103477;28;20222;-82
2022/12/23 09:13:43;;;;;;;14.03;8.70;;;8.50;99.90;;;;;;5108929;28;20516;-83
2022/12/23 09:16:10;;;;;;;16.10;8.63;;;8.50;99.90;;;;;;5101336;28;20208;-82
2022/12/23 09:18:37;;;;;;;14.77;7.53;;;8.50;99.90;;;;;;5106707;28;20225;-83
2022/12/23 09:21:06;;;;;;;17.27;9.10;;;8.60;99.90;;;;;;5105833;28;20216;-83
2022/12/23 09:23:33;;;;;;;16.23;8.10;;;8.50;99.90;;;;;;5103588;28;20637;-83
2022/12/23 09:26:00;;;;;;;17.63;9.00;;;8.50;99.90;;;;;;5102955;28;20208;-83
2022/12/23 09:28:27;;;;;;;17.53;9.20;;;8.50;99.90;;;;;;5101674;28;20229;-82
2022/12/23 09:30:55;;;;;;;14.13;7.83;;;8.40;99.90;;;;;;5104901;28;20224;-82
2022/12/23 09:33:22;;;;;;;14.57;8.53;;;8.40;99.90;;;;;;5105428;28;20265;-83
2022/12/23 09:35:49;;;;;;;15.80;8.80;;;8.50;99.90;;;;;;5102621;28;20304;-83
2022/12/23 09:38:16;;;;;;;14.93;8.03;;;8.50;99.90;;;;;;5102944;28;20223;-83
2022/12/23 09:40:43;;;;;;;15.73;8.70;;;8.50;99.90;;;;;;5107171;28;20261;-83
2022/12/23 09:43:20;;;;;;;15.60;9.23;;;8.50;99.90;;;;;;5103031;28;20232;-83
2022/12/23 09:46:01;;;;;;;18.97;9.23;;;8.40;99.90;;;;;;5104200;28;20197;-83
2022/12/23 09:48:32;;;;;;;15.17;7.83;;;8.40;99.90;;;;;;5105742;28;20316;-83
2022/12/23 09:51:00;;;;;;;17.90;8.70;;;8.40;99.90;;;;;;5106942;28;20236;-83
2022/12/23 09:53:34;;;;;;;17.33;8.90;;;8.40;99.90;;;;;;5107304;28;20571;-83
2022/12/23 09:56:13;;;;;;;17.33;9.00;;;8.40;99.90;;;;;;5106365;28;20225;-83
2022/12/23 09:58:47;;;;;;;16.30;9.10;;;8.40;99.90;;;;;;5100129;28;20229;-83
2022/12/23 10:01:23;;;;;;;17.13;9.50;;;8.40;99.90;;;;;;5103012;28;20208;-83
2022/12/23 10:04:29;;;;;;;14.53;7.73;;;8.40;99.90;;;;;;5103668;28;20197;-83
2022/12/23 10:07:10;;;;;;;16.30;7.57;;;8.40;99.90;;;;;;5100269;28;20208;-84
2022/12/23 10:09:40;;;;;;;18.13;8.53;;;8.50;99.90;;;;;;5100330;28;20208;-83
2022/12/23 10:12:16;;;;;;;18.73;8.97;;;8.50;99.90;;;;;;5105645;28;20193;-83
2022/12/23 10:14:45;;;;;;;18.87;10.33;;;8.50;99.90;;;;;;5098819;28;20292;-83
2022/12/23 10:17:17;;;;;;;17.97;9.53;;;8.70;99.90;;;;;;5096444;28;20222;-83
2022/12/23 10:19:47;;;;;;;20.17;9.43;;;8.70;99.90;;;;;;5106155;28;20224;-82
2022/12/23 10:22:26;;;;;;;19.97;10.27;;;8.70;99.90;;;;;;5112378;28;21083;-83
2022/12/23 10:24:55;;;;;;;19.27;11.07;;;8.80;99.90;;;;;;5110368;28;20268;-82
2022/12/23 10:27:29;;;;;;;20.73;10.67;;;8.70;99.90;;;;;;5097313;28;20225;-82
2022/12/23 10:29:59;;;;;;;23.67;12.47;;;8.70;99.90;;;;;;5099514;28;20204;-83
2022/12/23 10:32:34;;;;;;;22.47;11.57;;;8.90;99.90;;;;;;5102894;28;20274;-83
2022/12/23 10:35:06;;;;;;;22.93;11.70;;;8.80;99.90;;;;;;5098923;28;20205;-83
2022/12/23 10:37:39;;;;;;;25.43;11.37;;;8.80;99.90;;;;;;5097599;28;20233;-83
2022/12/23 10:40:15;;;;;;;23.97;12.50;;;8.80;99.90;;;;;;5096965;28;20312;-83
2022/12/23 10:42:47;;;;;;;26.90;13.23;;;8.80;99.90;;;;;;5097746;28;20198;-83
2022/12/23 10:45:31;;;;;;;26.87;12.53;;;8.70;99.90;;;;;;5098553;28;20261;-83
2022/12/23 10:48:09;;;;;;;26.53;11.87;;;8.70;99.90;;;;;;5098512;28;20233;-83
2022/12/23 10:50:50;;;;;;;25.10;12.57;;;8.70;99.90;;;;;;5097508;28;20280;-83
2022/12/23 10:53:27;;;;;;;23.90;12.33;;;8.80;99.90;;;;;;5099838;28;20556;-83
2022/12/23 10:55:55;;;;;;;24.53;13.07;;;8.70;99.90;;;;;;5097014;28;20205;-83
2022/12/23 10:58:22;;;;;;;26.30;14.40;;;8.90;99.90;;;;;;5100853;28;20239;-82
2022/12/23 11:00:53;;;;;;;24.33;12.53;;;8.70;99.90;;;;;;5092801;28;20315;-82
2022/12/23 11:03:25;;;;;;;26.43;12.70;;;8.60;99.90;;;;;;5094994;28;20205;-82
2022/12/23 11:05:53;;;;;;;25.90;13.20;;;8.60;99.90;;;;;;5084892;28;20206;-81
2022/12/23 11:08:21;;;;;;;23.23;12.60;;;8.60;99.90;;;;;;5094949;28;20221;-82
2022/12/23 11:10:49;;;;;;;25.77;13.17;;;8.50;99.90;;;;;;5085070;28;20309;-82
2022/12/23 11:13:36;;;;;;;22.90;12.07;;;8.50;99.90;;;;;;5093359;28;20436;-82
2022/12/23 11:16:17;;;;;;;27.13;13.90;;;8.60;99.90;;;;;;5088749;28;20209;-82
2022/12/23 11:18:57;;;;;;;26.40;13.27;;;8.60;99.90;;;;;;5096508;28;20229;-82
2022/12/23 11:21:25;;;;;;;25.80;13.53;;;8.50;99.90;;;;;;5094730;28;20209;-82
2022/12/23 11:24:08;;;;;;;23.70;12.50;;;8.40;99.90;;;;;;5100801;28;20212;-82
2022/12/23 11:26:36;;;;;;;27.27;13.97;;;8.40;99.90;;;;;;5089533;28;20198;-82
2022/12/23 11:29:07;;;;;;;24.93;12.97;;;8.40;99.90;;;;;;5090377;28;20217;-83
2022/12/23 11:31:35;;;;;;;26.50;13.93;;;8.40;99.90;;;;;;5095386;28;20573;-83
2022/12/23 11:34:05;;;;;;;27.07;13.93;;;8.40;99.90;;;;;;5101804;28;20209;-83
2022/12/23 11:36:34;;;;;;;26.40;13.87;;;8.40;99.90;;;;;;5102517;28;20657;-83
2022/12/23 11:39:07;;;;;;;26.40;14.00;;;8.30;99.90;;;;;;5104097;28;20281;-83
2022/12/23 11:41:37;;;;;;;25.60;13.00;;;8.40;99.90;;;;;;5104013;28;20204;-83
2022/12/23 11:44:10;;;;;;;24.33;13.17;;;8.50;99.90;;;;;;5100765;28;20266;-82
2022/12/23 11:46:37;;;;;;;27.93;13.87;;;8.40;99.90;;;;;;5114128;28;20673;-82
2022/12/23 11:49:14;;;;;;;23.60;12.47;;;8.40;99.90;;;;;;5101295;28;20253;-83
2022/12/23 11:51:40;;;;;;;25.80;13.20;;;8.40;99.90;;;;;;5103192;28;20396;-83
2022/12/23 11:54:16;;;;;;;25.67;13.30;;;8.30;99.90;;;;;;5103018;28;20198;-82
2022/12/23 11:56:43;;;;;;;25.83;11.90;;;8.30;99.90;;;;;;5095579;28;20204;-82
2022/12/23 11:59:26;;;;;;;24.63;12.37;;;8.30;99.90;;;;;;5095838;28;20674;-83
2022/12/23 12:01:54;;;;;;;24.30;11.60;;;8.40;99.90;;;;;;5092832;28;20197;-83
2022/12/23 12:04:25;;;;;;;25.07;11.73;;;8.40;99.90;;;;;;5101198;28;20205;-83
2022/12/23 12:06:52;;;;;;;24.70;12.53;;;8.40;99.90;;;;;;5099036;28;20212;-83
2022/12/23 12:09:22;;;;;;;25.67;12.53;;;8.40;99.90;;;;;;5104181;28;20220;-83
2022/12/23 12:11:52;;;;;;;24.03;12.07;;;8.40;99.90;;;;;;5102285;28;20236;-82
2022/12/23 12:14:24;;;;;;;22.80;11.37;;;8.40;99.90;;;;;;5098459;28;20265;-82
2022/12/23 12:16:56;;;;;;;27.80;12.63;;;8.40;99.90;;;;;;5097357;28;20300;-83
2022/12/23 12:19:28;;;;;;;23.50;12.17;;;8.30;99.90;;;;;;5108143;28;20296;-82
2022/12/23 12:22:01;;;;;;;22.77;12.40;;;8.30;99.90;;;;;;5103305;28;20200;-83
2022/12/23 12:24:31;;;;;;;22.17;11.80;;;8.40;99.90;;;;;;5111932;28;20205;-82
2022/12/23 12:27:02;;;;;;;24.40;12.90;;;8.40;99.90;;;;;;5108585;28;20203;-83
2022/12/23 12:29:36;;;;;;;25.70;12.30;;;8.40;99.90;;;;;;5106698;28;20205;-83
2022/12/23 12:32:05;;;;;;;26.27;13.37;;;8.30;99.90;;;;;;5105405;28;20251;-83
2022/12/23 12:34:42;;;;;;;23.30;11.97;;;8.40;99.90;;;;;;5101155;28;20198;-83
2022/12/23 12:37:20;;;;;;;22.40;11.70;;;8.40;99.90;;;;;;5096357;28;20217;-83
2022/12/23 12:39:53;;;;;;;22.37;11.27;;;8.40;99.90;;;;;;5106491;28;20204;-83
2022/12/23 12:42:27;;;;;;;21.53;10.87;;;8.40;99.90;;;;;;5088772;28;20271;-83
2022/12/23 12:45:00;;;;;;;23.47;12.10;;;8.30;99.90;;;;;;5104662;28;20204;-83
2022/12/23 12:47:31;;;;;;;24.63;12.40;;;8.30;99.90;;;;;;5102954;28;20221;-83
2022/12/23 12:50:06;;;;;;;25.40;12.37;;;8.30;99.90;;;;;;5104104;28;20208;-83
2022/12/23 12:52:39;;;;;;;26.97;12.73;;;8.30;99.90;;;;;;5101065;28;20224;-83
2022/12/23 12:55:15;;;;;;;24.77;13.03;;;8.30;99.90;;;;;;5107778;28;20194;-83
2022/12/23 12:57:43;;;;;;;23.90;12.40;;;8.30;99.90;;;;;;5105565;28;20233;-83
2022/12/23 13:00:15;;;;;;;24.97;12.23;;;8.30;99.90;;;;;;5109458;28;20292;-83
2022/12/23 13:03:12;;;;;;;22.17;12.03;;;8.30;99.90;;;;;;5107064;28;20254;-82
2022/12/23 13:06:05;;;;;;;20.97;9.97;;;8.30;99.90;;;;;;5105613;28;20198;-83
2022/12/23 13:08:49;;;;;;;21.73;10.13;;;8.20;99.90;;;;;;5102818;28;20285;-83
2022/12/23 13:11:20;;;;;;;20.50;10.00;;;8.20;99.90;;;;;;5096185;28;20238;-83
2022/12/23 13:13:54;;;;;;;21.17;10.60;;;8.40;99.90;;;;;;5103838;28;20204;-82
2022/12/23 13:16:30;;;;;;;20.37;10.50;;;8.20;99.90;;;;;;5099555;28;20205;-82
2022/12/23 13:19:04;;;;;;;21.20;11.67;;;8.20;99.90;;;;;;5088983;28;20639;-84
2022/12/23 13:21:40;;;;;;;19.57;9.63;;;8.30;99.90;;;;;;5096343;28;21451;-82
2022/12/23 13:24:17;;;;;;;22.10;10.80;;;8.40;99.90;;;;;;5103654;28;20704;-82
2022/12/23 13:26:55;;;;;;;20.17;10.67;;;8.20;99.90;;;;;;5102506;28;20269;-82
2022/12/23 13:29:59;;;;;;;21.77;10.27;;;8.20;99.90;;;;;;5103356;28;20209;-83